Time;durP1;ratioP1;P1;durP2;ratioP2;P2;SDS_P1;SDS_P2;PMS_P1;PMS_P2;Temp;Humidity;BMP_temperature;BMP_pressure;BME280_temperature;BME280_humidity;BME280_pressure;Samples;Min_cycle;Max_cycle;Signal;HPM_P1;HPM_P2
2022/10/29 00:01:56;;;;;;;9.98;5.28;;;18.00;99.90;;;;;;5038443;28;20184;-74
2022/10/29 00:04:22;;;;;;;10.13;5.28;;;18.10;99.90;;;;;;5042703;28;20170;-74
2022/10/29 00:06:47;;;;;;;7.60;4.80;;;18.10;99.90;;;;;;5045684;28;20201;-73
2022/10/29 00:09:18;;;;;;;9.00;5.10;;;18.10;99.90;;;;;;5047967;28;20247;-75
2022/10/29 00:11:44;;;;;;;9.68;5.10;;;18.10;99.90;;;;;;5056941;28;20185;-75
2022/10/29 00:14:12;;;;;;;8.23;4.50;;;18.10;99.90;;;;;;5046440;28;20204;-75
2022/10/29 00:16:38;;;;;;;8.65;5.10;;;18.10;99.90;;;;;;5039908;28;20227;-75
2022/10/29 00:19:04;;;;;;;9.63;5.35;;;18.20;99.90;;;;;;5046595;28;20190;-75
2022/10/29 00:21:30;;;;;;;9.18;5.13;;;18.20;99.90;;;;;;5041847;28;20206;-76
2022/10/29 00:23:57;;;;;;;9.93;5.00;;;18.20;99.90;;;;;;5035824;28;20212;-75
2022/10/29 00:26:23;;;;;;;8.98;5.53;;;18.20;99.90;;;;;;5036015;28;20178;-75
2022/10/29 00:28:53;;;;;;;7.30;5.15;;;18.20;99.90;;;;;;5060322;28;20196;-75
2022/10/29 00:31:25;;;;;;;8.85;5.57;;;18.20;99.90;;;;;;5058312;28;20209;-75
2022/10/29 00:33:56;;;;;;;8.43;4.78;;;18.20;99.90;;;;;;5041835;28;20186;-75
2022/10/29 00:36:27;;;;;;;7.53;4.72;;;18.20;99.90;;;;;;5050797;28;20269;-75
2022/10/29 00:38:54;;;;;;;12.02;5.55;;;18.20;99.90;;;;;;5040733;28;20222;-75
2022/10/29 00:41:27;;;;;;;10.32;4.90;;;18.20;99.90;;;;;;5046923;28;20170;-75
2022/10/29 00:44:20;;;;;;;9.43;5.00;;;18.20;99.90;;;;;;5047139;28;20198;-75
2022/10/29 00:46:52;;;;;;;9.75;4.95;;;18.20;99.90;;;;;;5045615;28;20167;-74
2022/10/29 00:49:18;;;;;;;9.40;5.10;;;18.20;99.90;;;;;;5043406;28;20174;-75
2022/10/29 00:51:45;;;;;;;9.20;4.63;;;18.20;99.90;;;;;;5042486;28;20178;-75
2022/10/29 00:54:13;;;;;;;8.10;4.53;;;18.20;99.90;;;;;;5043380;28;20213;-75
2022/10/29 00:56:49;;;;;;;8.65;4.88;;;18.20;99.90;;;;;;5051831;28;20188;-75
2022/10/29 00:59:16;;;;;;;8.38;4.72;;;18.20;99.90;;;;;;5061427;28;20279;-75
2022/10/29 01:01:44;;;;;;;7.78;4.97;;;18.20;99.90;;;;;;5044087;28;20202;-75
2022/10/29 01:04:12;;;;;;;9.32;4.90;;;18.10;99.90;;;;;;5050776;28;20190;-74
2022/10/29 01:06:39;;;;;;;8.55;4.50;;;18.10;99.90;;;;;;5063804;28;20200;-75
2022/10/29 01:09:04;;;;;;;6.90;4.75;;;18.10;99.90;;;;;;5049161;28;20212;-75
2022/10/29 01:11:57;;;;;;;7.38;4.45;;;18.10;99.90;;;;;;5046697;28;20217;-75
2022/10/29 01:14:56;;;;;;;8.38;4.57;;;18.10;99.90;;;;;;5031743;28;20174;-75
2022/10/29 01:17:51;;;;;;;8.13;4.28;;;18.10;99.90;;;;;;5039147;28;20201;-74
2022/10/29 01:20:26;;;;;;;7.35;3.90;;;18.10;99.90;;;;;;5039192;28;20194;-75
2022/10/29 01:23:22;;;;;;;4.85;3.50;;;18.10;99.90;;;;;;5041701;28;20216;-75
2022/10/29 01:26:09;;;;;;;9.70;4.47;;;18.00;99.90;;;;;;5043491;28;20240;-74
2022/10/29 01:28:59;;;;;;;8.10;4.22;;;18.00;99.90;;;;;;5038274;28;20194;-75
2022/10/29 01:31:38;;;;;;;5.90;3.25;;;18.00;99.90;;;;;;5050469;28;20178;-75
2022/10/29 01:34:12;;;;;;;9.63;4.30;;;18.00;99.90;;;;;;5047624;28;20194;-75
2022/10/29 01:36:42;;;;;;;7.00;4.20;;;17.90;99.90;;;;;;5062205;28;20257;-75
2022/10/29 01:39:29;;;;;;;9.50;3.78;;;17.90;99.90;;;;;;5043144;28;20261;-75
2022/10/29 01:42:17;;;;;;;6.50;4.13;;;17.90;99.90;;;;;;5061513;28;20181;-75
2022/10/29 01:44:53;;;;;;;5.95;3.75;;;17.90;99.90;;;;;;5049599;28;20205;-75
2022/10/29 01:47:20;;;;;;;6.80;3.83;;;17.80;99.90;;;;;;5049176;28;20173;-75
2022/10/29 01:49:53;;;;;;;7.05;3.95;;;17.80;99.90;;;;;;5040674;28;20187;-74
2022/10/29 01:52:27;;;;;;;6.80;3.65;;;17.80;99.90;;;;;;5037979;28;20166;-75
2022/10/29 01:54:56;;;;;;;5.65;3.70;;;17.70;99.90;;;;;;5039136;28;20245;-75
2022/10/29 01:57:27;;;;;;;6.97;3.03;;;17.70;99.90;;;;;;5047215;28;20232;-74
2022/10/29 01:59:55;;;;;;;6.93;3.38;;;17.60;99.90;;;;;;5037820;28;20198;-75
2022/10/29 02:02:27;;;;;;;5.15;3.35;;;17.60;99.90;;;;;;5034410;28;20175;-75
2022/10/29 02:05:11;;;;;;;5.57;3.63;;;17.60;99.90;;;;;;5056080;28;20244;-75
2022/10/29 02:07:44;;;;;;;7.53;3.72;;;17.60;99.90;;;;;;5057441;28;20172;-75
2022/10/29 02:10:25;;;;;;;7.72;3.45;;;17.60;99.90;;;;;;5039941;28;20189;-75
2022/10/29 02:12:52;;;;;;;7.97;3.78;;;17.60;99.90;;;;;;5042475;28;20264;-75
2022/10/29 02:15:20;;;;;;;5.72;3.60;;;17.50;99.90;;;;;;5045999;28;20178;-75
2022/10/29 02:17:48;;;;;;;7.30;3.40;;;17.50;99.90;;;;;;5045090;28;20216;-75
2022/10/29 02:20:15;;;;;;;7.15;3.22;;;17.50;99.90;;;;;;5037149;28;20190;-74
2022/10/29 02:22:45;;;;;;;9.82;3.38;;;17.50;99.90;;;;;;5038041;28;20462;-75
2022/10/29 02:25:11;;;;;;;6.43;3.60;;;17.50;99.90;;;;;;5038334;28;20174;-75
2022/10/29 02:27:39;;;;;;;9.30;3.60;;;17.50;99.90;;;;;;5043142;28;20198;-75
2022/10/29 02:30:05;;;;;;;6.60;3.42;;;17.50;99.90;;;;;;5030219;28;20178;-75
2022/10/29 02:32:31;;;;;;;9.75;3.90;;;17.50;99.90;;;;;;5057717;28;20380;-75
2022/10/29 02:35:00;;;;;;;6.85;3.38;;;17.50;99.90;;;;;;5038717;28;20182;-75
2022/10/29 02:37:29;;;;;;;6.60;3.65;;;17.50;99.90;;;;;;5033115;28;20182;-75
2022/10/29 02:39:56;;;;;;;9.07;3.72;;;17.50;99.90;;;;;;5037043;28;20202;-75
2022/10/29 02:42:24;;;;;;;8.60;3.25;;;17.40;99.90;;;;;;5038876;28;20174;-75
2022/10/29 02:44:54;;;;;;;6.63;3.22;;;17.40;99.90;;;;;;5050877;28;20198;-76
2022/10/29 02:47:22;;;;;;;4.30;3.10;;;17.40;99.90;;;;;;5029751;28;20170;-75
2022/10/29 02:49:50;;;;;;;8.95;3.58;;;17.40;99.90;;;;;;5062817;28;20174;-75
2022/10/29 02:52:16;;;;;;;6.78;3.47;;;17.40;99.90;;;;;;5043716;28;20211;-75
2022/10/29 02:54:41;;;;;;;10.55;3.67;;;17.40;99.90;;;;;;5043216;28;20213;-75
2022/10/29 02:57:10;;;;;;;5.72;3.42;;;17.30;99.90;;;;;;5044253;28;20272;-75
2022/10/29 02:59:37;;;;;;;7.80;3.22;;;17.40;99.90;;;;;;5038595;28;20226;-76
2022/10/29 03:02:06;;;;;;;5.97;3.25;;;17.30;99.90;;;;;;5047914;28;20182;-75
2022/10/29 03:04:31;;;;;;;6.70;3.30;;;17.30;99.90;;;;;;5059034;28;20181;-76
2022/10/29 03:07:03;;;;;;;6.88;3.58;;;17.20;99.90;;;;;;5042090;28;20213;-75
2022/10/29 03:09:31;;;;;;;6.72;3.35;;;17.20;99.90;;;;;;5043811;28;20182;-76
2022/10/29 03:11:57;;;;;;;7.40;3.55;;;17.20;99.90;;;;;;5043444;28;20229;-75
2022/10/29 03:14:22;;;;;;;6.47;3.22;;;17.10;99.90;;;;;;5045878;28;20233;-76
2022/10/29 03:16:48;;;;;;;6.45;3.72;;;17.10;99.90;;;;;;5046472;28;20272;-75
2022/10/29 03:19:13;;;;;;;7.18;3.65;;;17.00;99.90;;;;;;5052571;28;20202;-75
2022/10/29 03:21:41;;;;;;;9.23;3.17;;;17.00;99.90;;;;;;5051786;28;20204;-75
2022/10/29 03:24:07;;;;;;;5.53;3.25;;;17.00;99.90;;;;;;5045461;28;20170;-76
2022/10/29 03:26:32;;;;;;;7.05;3.63;;;17.00;99.90;;;;;;5043675;28;20221;-75
2022/10/29 03:28:58;;;;;;;6.00;3.30;;;17.00;99.90;;;;;;5040401;28;20212;-76
2022/10/29 03:31:24;;;;;;;5.85;3.38;;;16.90;99.90;;;;;;5039746;28;20208;-76
2022/10/29 03:33:49;;;;;;;9.02;3.95;;;16.90;99.90;;;;;;5038793;28;20177;-75
2022/10/29 03:36:17;;;;;;;5.85;3.70;;;16.90;99.90;;;;;;5035905;28;20258;-75
2022/10/29 03:38:45;;;;;;;6.15;3.78;;;16.90;99.90;;;;;;5036553;28;20222;-75
2022/10/29 03:41:13;;;;;;;8.55;4.15;;;16.90;99.90;;;;;;5042345;28;20191;-75
2022/10/29 03:43:39;;;;;;;7.13;3.22;;;16.90;99.90;;;;;;5039062;28;20178;-75
2022/10/29 03:46:07;;;;;;;7.43;3.90;;;16.90;99.90;;;;;;5060954;28;20181;-75
2022/10/29 03:48:33;;;;;;;6.35;3.28;;;16.90;99.90;;;;;;5044239;28;20182;-75
2022/10/29 03:51:02;;;;;;;8.18;3.60;;;16.90;99.90;;;;;;5063323;28;20240;-75
2022/10/29 03:53:30;;;;;;;8.18;3.63;;;16.90;99.90;;;;;;5047695;28;20184;-75
2022/10/29 03:55:56;;;;;;;6.18;3.92;;;16.90;99.90;;;;;;5054704;28;20185;-75
2022/10/29 03:58:23;;;;;;;7.13;3.65;;;16.90;99.90;;;;;;5056612;28;20289;-76
2022/10/29 04:01:03;;;;;;;7.68;3.28;;;16.80;99.90;;;;;;5040870;28;20217;-76
2022/10/29 04:03:32;;;;;;;6.18;3.45;;;16.80;99.90;;;;;;5040484;28;20190;-75
2022/10/29 04:06:00;;;;;;;5.32;3.40;;;16.80;99.90;;;;;;5040366;28;20180;-75
2022/10/29 04:08:26;;;;;;;6.63;3.35;;;16.90;99.90;;;;;;5046085;28;20188;-75
2022/10/29 04:10:52;;;;;;;6.15;3.08;;;16.80;99.90;;;;;;5044730;28;20198;-75
2022/10/29 04:13:18;;;;;;;4.75;3.25;;;16.80;99.90;;;;;;5058614;28;20170;-75
2022/10/29 04:15:44;;;;;;;6.82;4.15;;;16.90;99.90;;;;;;5041618;28;20191;-75
2022/10/29 04:18:10;;;;;;;6.80;3.30;;;16.90;99.90;;;;;;5047639;28;20185;-74
2022/10/29 04:20:38;;;;;;;6.60;3.28;;;16.80;99.90;;;;;;5043208;28;20260;-75
2022/10/29 04:23:06;;;;;;;6.10;3.38;;;16.90;99.90;;;;;;5044251;28;20217;-76
2022/10/29 04:25:32;;;;;;;8.00;3.28;;;16.90;99.90;;;;;;5032745;28;20178;-75
2022/10/29 04:27:57;;;;;;;6.72;3.30;;;17.00;99.90;;;;;;5040468;28;20269;-75
2022/10/29 04:30:25;;;;;;;6.40;3.60;;;17.00;99.90;;;;;;5063188;28;20213;-76
2022/10/29 04:32:56;;;;;;;6.07;3.38;;;17.00;99.90;;;;;;5060359;28;20209;-75
2022/10/29 04:35:23;;;;;;;5.20;3.33;;;17.00;99.90;;;;;;5038120;28;20182;-75
2022/10/29 04:37:49;;;;;;;7.13;3.60;;;17.00;99.90;;;;;;5038587;28;20194;-76
2022/10/29 04:40:14;;;;;;;9.48;3.70;;;17.10;99.90;;;;;;5041062;28;20198;-76
2022/10/29 04:42:42;;;;;;;8.48;3.85;;;17.10;99.90;;;;;;5043341;28;20237;-76
2022/10/29 04:45:08;;;;;;;9.82;3.92;;;17.10;99.90;;;;;;5040418;28;20194;-76
2022/10/29 04:47:34;;;;;;;7.70;3.90;;;17.10;99.90;;;;;;5051609;28;20174;-76
2022/10/29 04:50:00;;;;;;;5.95;3.40;;;17.20;99.90;;;;;;5058616;28;20174;-76
2022/10/29 04:52:25;;;;;;;7.45;3.72;;;17.20;99.90;;;;;;5037142;28;20182;-76
2022/10/29 04:54:51;;;;;;;8.30;3.92;;;17.20;99.90;;;;;;5041686;28;20192;-76
2022/10/29 04:57:21;;;;;;;7.82;3.92;;;17.20;99.90;;;;;;5046284;28;20202;-76
2022/10/29 04:59:47;;;;;;;8.35;4.13;;;17.20;99.90;;;;;;5042288;28;20194;-76
2022/10/29 05:02:12;;;;;;;5.68;3.63;;;17.20;99.90;;;;;;5049478;28;20184;-75
2022/10/29 05:04:38;;;;;;;7.72;3.95;;;17.20;99.90;;;;;;5045257;28;20189;-76
2022/10/29 05:07:04;;;;;;;6.55;3.60;;;17.20;99.90;;;;;;5051131;28;20169;-75
2022/10/29 05:09:31;;;;;;;10.15;3.70;;;17.20;99.90;;;;;;5057303;28;20217;-75
2022/10/29 05:11:57;;;;;;;6.68;3.45;;;17.20;99.90;;;;;;5046486;28;20300;-75
2022/10/29 05:14:23;;;;;;;4.70;3.30;;;17.20;99.90;;;;;;5041686;28;20178;-75
2022/10/29 05:16:51;;;;;;;8.25;3.75;;;17.20;99.90;;;;;;5039879;28;20188;-76
2022/10/29 05:19:16;;;;;;;7.82;3.40;;;17.20;99.90;;;;;;5034511;28;20198;-76
2022/10/29 05:21:42;;;;;;;6.63;3.50;;;17.20;99.90;;;;;;5042598;28;20289;-76
2022/10/29 05:24:08;;;;;;;6.07;3.45;;;17.20;99.90;;;;;;5047444;28;20266;-75
2022/10/29 05:26:33;;;;;;;7.15;4.18;;;17.20;99.90;;;;;;5037937;28;20174;-76
2022/10/29 05:28:59;;;;;;;6.50;3.40;;;17.20;99.90;;;;;;5050184;28;20217;-75
2022/10/29 05:31:27;;;;;;;7.80;4.10;;;17.30;99.90;;;;;;5046012;28;20221;-76
2022/10/29 05:33:53;;;;;;;10.63;4.80;;;17.30;99.90;;;;;;5044375;28;20189;-75
2022/10/29 05:36:20;;;;;;;6.63;4.47;;;17.30;99.90;;;;;;5035676;28;20174;-75
2022/10/29 05:38:46;;;;;;;7.75;4.50;;;17.30;99.90;;;;;;5036913;28;20260;-85
2022/10/29 05:41:12;;;;;;;6.78;3.75;;;17.30;99.90;;;;;;5034957;28;20223;-75
2022/10/29 05:43:37;;;;;;;11.38;3.90;;;17.40;99.90;;;;;;5034154;28;20169;-75
2022/10/29 05:46:05;;;;;;;8.10;4.10;;;17.30;99.90;;;;;;5036592;28;20230;-76
2022/10/29 05:48:31;;;;;;;7.75;4.10;;;17.40;99.90;;;;;;5041071;28;20208;-76
2022/10/29 05:50:57;;;;;;;7.47;3.95;;;17.40;99.90;;;;;;5039359;28;20170;-75
2022/10/29 05:53:23;;;;;;;7.47;4.00;;;17.40;99.90;;;;;;5060223;28;20194;-75
2022/10/29 05:55:49;;;;;;;8.15;3.75;;;17.40;99.90;;;;;;5042261;28;20177;-75
2022/10/29 05:58:17;;;;;;;5.40;3.45;;;17.40;99.90;;;;;;5061117;28;20178;-76
2022/10/29 06:00:46;;;;;;;6.35;3.92;;;17.50;99.90;;;;;;5043744;28;20222;-75
2022/10/29 06:03:18;;;;;;;7.45;4.38;;;17.50;99.90;;;;;;5046208;28;20182;-75
2022/10/29 06:05:50;;;;;;;5.10;3.97;;;17.50;99.90;;;;;;5054148;28;20178;-76
2022/10/29 06:08:16;;;;;;;6.35;3.85;;;17.60;99.90;;;;;;5036377;28;20186;-76
2022/10/29 06:10:45;;;;;;;5.78;3.45;;;17.60;99.90;;;;;;5042402;28;20194;-75
2022/10/29 06:13:11;;;;;;;9.95;3.92;;;17.60;99.90;;;;;;5046075;28;20197;-75
2022/10/29 06:15:37;;;;;;;7.20;3.30;;;17.60;99.90;;;;;;5042197;28;20174;-75
2022/10/29 06:18:05;;;;;;;6.30;3.50;;;17.70;99.90;;;;;;5048356;28;20205;-76
2022/10/29 06:20:31;;;;;;;18.30;13.35;;;17.70;99.90;;;;;;5048478;28;20216;-75
2022/10/29 06:22:57;;;;;;;10.68;6.82;;;17.70;99.90;;;;;;5042732;28;20261;-75
2022/10/29 06:25:26;;;;;;;9.98;5.30;;;17.70;99.90;;;;;;5047761;28;20193;-75
2022/10/29 06:28:05;;;;;;;10.82;4.75;;;17.70;99.90;;;;;;5042962;28;20195;-76
2022/10/29 06:30:33;;;;;;;7.63;4.00;;;17.70;99.90;;;;;;5039158;28;20179;-75
2022/10/29 06:32:59;;;;;;;6.85;3.63;;;17.70;99.90;;;;;;5045493;28;20198;-75
2022/10/29 06:35:25;;;;;;;7.25;4.13;;;17.70;99.90;;;;;;5042829;28;20178;-75
2022/10/29 06:37:53;;;;;;;7.05;3.50;;;17.70;99.90;;;;;;5043560;28;20208;-75
2022/10/29 06:40:19;;;;;;;7.55;3.47;;;17.70;99.90;;;;;;5062827;28;20213;-74
2022/10/29 06:42:45;;;;;;;6.95;3.72;;;17.70;99.90;;;;;;5049367;28;20220;-75
2022/10/29 06:45:12;;;;;;;7.32;3.80;;;17.70;99.90;;;;;;5045253;28;20193;-75
2022/10/29 06:47:41;;;;;;;6.80;3.67;;;17.70;99.90;;;;;;5045801;28;20185;-76
2022/10/29 06:50:08;;;;;;;7.32;3.13;;;17.80;99.90;;;;;;5056762;28;20213;-76
2022/10/29 06:52:36;;;;;;;8.02;3.45;;;17.80;99.90;;;;;;5028817;28;20206;-75
2022/10/29 06:55:03;;;;;;;7.15;3.65;;;17.80;99.90;;;;;;5051221;28;20272;-86
2022/10/29 06:57:31;;;;;;;9.13;3.20;;;17.90;99.90;;;;;;5032688;28;20190;-85
2022/10/29 06:59:59;;;;;;;5.45;3.38;;;17.90;99.90;;;;;;5032917;28;20194;-87
2022/10/29 07:02:27;;;;;;;6.93;3.20;;;17.90;99.90;;;;;;5032285;28;20264;-81
2022/10/29 07:04:52;;;;;;;5.03;3.30;;;18.00;99.90;;;;;;5053050;28;20206;-83
2022/10/29 07:07:18;;;;;;;7.32;3.67;;;18.00;99.90;;;;;;5034441;28;20174;-83
2022/10/29 07:09:48;;;;;;;7.57;4.22;;;18.00;99.90;;;;;;5054313;28;20185;-75
2022/10/29 07:12:14;;;;;;;11.52;8.80;;;18.00;99.90;;;;;;5046565;28;20225;-74
2022/10/29 07:14:42;;;;;;;9.18;5.68;;;18.10;99.90;;;;;;5045231;28;20186;-75
2022/10/29 07:17:10;;;;;;;7.90;4.20;;;18.10;99.90;;;;;;5039282;28;20184;-75
2022/10/29 07:19:40;;;;;;;7.63;4.28;;;18.10;99.90;;;;;;5037409;28;20278;-75
2022/10/29 07:22:08;;;;;;;14.15;9.13;;;18.20;99.90;;;;;;5057610;28;20182;-77
2022/10/29 07:24:38;;;;;;;11.63;6.72;;;18.20;99.90;;;;;;5055059;28;20206;-78
2022/10/29 07:27:06;;;;;;;10.05;7.10;;;18.20;99.90;;;;;;5042948;28;20182;-78
2022/10/29 07:29:31;;;;;;;10.23;5.40;;;18.20;99.90;;;;;;5050843;28;20181;-78
2022/10/29 07:31:59;;;;;;;7.55;4.60;;;18.20;99.90;;;;;;5057043;28;20255;-77
2022/10/29 07:34:25;;;;;;;10.25;4.32;;;18.20;99.90;;;;;;5044496;28;20175;-78
2022/10/29 07:36:50;;;;;;;7.25;4.35;;;18.30;99.90;;;;;;5037494;28;20177;-76
2022/10/29 07:39:22;;;;;;;8.07;3.78;;;18.30;99.90;;;;;;5040487;28;20208;-76
2022/10/29 07:41:47;;;;;;;5.78;3.60;;;18.30;99.90;;;;;;5034766;28;20226;-76
2022/10/29 07:44:13;;;;;;;6.75;3.15;;;18.30;99.90;;;;;;5043585;28;20190;-75
2022/10/29 07:46:38;;;;;;;6.70;3.45;;;18.40;99.90;;;;;;5031396;28;20189;-75
2022/10/29 07:49:04;;;;;;;5.00;3.15;;;18.40;99.90;;;;;;5033183;28;20174;-76
2022/10/29 07:51:30;;;;;;;7.07;3.58;;;18.40;99.90;;;;;;5031056;28;20193;-76
2022/10/29 07:53:55;;;;;;;6.85;3.80;;;18.40;99.90;;;;;;5039624;28;20185;-76
2022/10/29 07:56:21;;;;;;;6.93;3.50;;;18.40;99.90;;;;;;5029935;28;20205;-75
2022/10/29 07:58:49;;;;;;;6.70;3.72;;;18.40;99.90;;;;;;5032068;28;20178;-77
2022/10/29 08:01:14;;;;;;;5.15;3.28;;;18.50;99.90;;;;;;5036203;28;20173;-79
2022/10/29 08:03:40;;;;;;;6.97;3.38;;;18.50;99.90;;;;;;5033528;28;20224;-78
2022/10/29 08:06:08;;;;;;;8.38;3.25;;;18.50;99.90;;;;;;5031121;28;20241;-79
2022/10/29 08:08:33;;;;;;;6.05;3.17;;;18.50;99.90;;;;;;5038812;28;20180;-78
2022/10/29 08:11:01;;;;;;;6.40;3.35;;;18.60;99.90;;;;;;5035348;28;20264;-77
2022/10/29 08:13:27;;;;;;;5.75;3.10;;;18.60;99.90;;;;;;5034109;28;20231;-78
2022/10/29 08:15:52;;;;;;;7.85;3.20;;;18.60;99.90;;;;;;5036337;28;20197;-79
2022/10/29 08:18:18;;;;;;;6.13;3.20;;;18.70;99.90;;;;;;5033581;28;20212;-80
2022/10/29 08:20:44;;;;;;;6.88;3.10;;;18.70;99.90;;;;;;5033987;28;20205;-78
2022/10/29 08:23:14;;;;;;;4.43;2.70;;;18.80;99.90;;;;;;5034264;28;20178;-80
2022/10/29 08:25:42;;;;;;;8.23;3.10;;;18.90;99.90;;;;;;5034552;28;20201;-80
2022/10/29 08:28:10;;;;;;;6.30;3.00;;;18.90;99.90;;;;;;5033382;28;20193;-78
2022/10/29 08:30:45;;;;;;;6.00;2.72;;;19.00;99.90;;;;;;5036866;28;20182;-80
2022/10/29 08:33:10;;;;;;;7.65;3.22;;;19.00;99.90;;;;;;5019141;28;20259;-79
2022/10/29 08:35:36;;;;;;;5.60;2.85;;;19.00;99.90;;;;;;5034515;28;20214;-79
2022/10/29 08:38:01;;;;;;;6.00;2.78;;;19.10;99.90;;;;;;5034903;28;20198;-79
2022/10/29 08:40:30;;;;;;;7.35;3.17;;;19.20;99.90;;;;;;5040428;28;20197;-78
2022/10/29 08:43:21;;;;;;;6.35;2.92;;;19.20;99.90;;;;;;5042562;28;20170;-79
2022/10/29 08:45:51;;;;;;;6.53;3.17;;;19.30;99.90;;;;;;5037155;28;20193;-79
2022/10/29 08:48:38;;;;;;;6.75;3.42;;;19.30;99.90;;;;;;5037583;28;20260;-80
2022/10/29 08:51:29;;;;;;;8.05;3.10;;;19.40;99.90;;;;;;5036050;28;20166;-79
2022/10/29 08:53:57;;;;;;;6.38;3.10;;;19.50;99.90;;;;;;5034055;28;20238;-78
2022/10/29 08:56:37;;;;;;;6.47;3.13;;;19.50;99.90;;;;;;5035641;28;20166;-77
2022/10/29 08:59:14;;;;;;;4.53;2.60;;;19.60;99.90;;;;;;5037181;28;20204;-79
2022/10/29 09:01:40;;;;;;;7.10;3.05;;;19.60;99.90;;;;;;5029227;28;20170;-78
2022/10/29 09:04:25;;;;;;;7.40;3.55;;;19.70;99.90;;;;;;5037203;28;20269;-77
2022/10/29 09:07:18;;;;;;;7.97;2.53;;;19.80;99.90;;;;;;5046663;28;20170;-80
2022/10/29 09:10:31;;;;;;;5.60;3.20;;;19.80;99.90;;;;;;5030651;28;20231;-76
2022/10/29 09:13:18;;;;;;;5.13;2.67;;;20.00;99.90;;;;;;5021660;28;20360;-78
2022/10/29 09:16:04;;;;;;;7.20;2.80;;;20.00;99.90;;;;;;5033319;28;20209;-80
2022/10/29 09:18:48;;;;;;;5.20;3.35;;;20.10;99.90;;;;;;5029762;28;20177;-79
2022/10/29 09:21:41;;;;;;;6.18;3.15;;;20.20;99.90;;;;;;5027971;28;20236;-80
2022/10/29 09:24:22;;;;;;;4.43;3.00;;;20.20;99.90;;;;;;5035742;28;20273;-80
2022/10/29 09:26:58;;;;;;;5.65;2.92;;;20.30;99.90;;;;;;5026208;28;20191;-80
2022/10/29 09:29:47;;;;;;;5.53;3.08;;;20.50;99.90;;;;;;5022454;28;20204;-80
2022/10/29 09:32:28;;;;;;;9.00;3.58;;;20.90;99.90;;;;;;5032142;28;20204;-80
2022/10/29 09:35:06;;;;;;;7.45;3.40;;;21.10;99.90;;;;;;5036814;28;20205;-79
2022/10/29 09:37:47;;;;;;;6.47;2.90;;;21.20;99.90;;;;;;5052203;28;20197;-80
2022/10/29 09:40:26;;;;;;;6.10;2.97;;;21.20;99.90;;;;;;5036220;28;20573;-80
2022/10/29 09:42:53;;;;;;;5.90;2.78;;;21.20;99.90;;;;;;5028292;28;20181;-78
2022/10/29 09:45:23;;;;;;;4.97;3.03;;;21.20;99.90;;;;;;5035479;28;20185;-77
2022/10/29 09:48:12;;;;;;;6.28;3.15;;;21.20;99.90;;;;;;5049843;28;20193;-77
2022/10/29 09:50:58;;;;;;;6.13;2.75;;;21.10;99.90;;;;;;5035241;28;20205;-78
2022/10/29 09:53:24;;;;;;;7.18;3.00;;;21.10;99.90;;;;;;5035750;28;20320;-80
2022/10/29 09:55:52;;;;;;;6.55;3.00;;;21.10;99.90;;;;;;5035072;28;20298;-82
2022/10/29 09:58:24;;;;;;;5.65;3.03;;;21.10;99.90;;;;;;5039587;28;20365;-80
2022/10/29 10:00:50;;;;;;;7.88;3.33;;;21.10;99.90;;;;;;5036003;28;20209;-78
2022/10/29 10:03:23;;;;;;;8.45;3.30;;;21.20;99.90;;;;;;5036241;28;20209;-79
2022/10/29 10:06:01;;;;;;;7.30;2.90;;;21.20;99.90;;;;;;5039913;28;20170;-78
2022/10/29 10:08:33;;;;;;;4.82;2.65;;;21.20;99.90;;;;;;5035333;28;20182;-78
2022/10/29 10:11:04;;;;;;;6.45;2.88;;;21.20;99.90;;;;;;5050874;28;20233;-79
2022/10/29 10:13:34;;;;;;;5.60;2.85;;;21.30;99.90;;;;;;5046257;28;20186;-78
2022/10/29 10:16:05;;;;;;;9.30;2.90;;;21.30;99.90;;;;;;5035512;28;20279;-77
2022/10/29 10:18:33;;;;;;;6.10;2.97;;;21.30;99.90;;;;;;5052356;28;20194;-78
2022/10/29 10:20:59;;;;;;;7.80;3.08;;;21.40;99.90;;;;;;5039170;28;20202;-80
2022/10/29 10:23:29;;;;;;;8.63;3.15;;;21.40;99.90;;;;;;5044637;28;20248;-79
2022/10/29 10:25:58;;;;;;;9.15;3.40;;;21.40;99.90;;;;;;5045141;28;20181;-80
2022/10/29 10:28:34;;;;;;;4.03;3.05;;;21.50;99.90;;;;;;5035645;28;20182;-79
2022/10/29 10:31:03;;;;;;;8.27;3.17;;;21.50;99.90;;;;;;5036001;28;20201;-80
2022/10/29 10:33:30;;;;;;;5.13;2.60;;;21.60;99.90;;;;;;5035335;28;20185;-78
2022/10/29 10:36:00;;;;;;;6.78;2.88;;;21.70;99.90;;;;;;5048004;28;20196;-79
2022/10/29 10:38:26;;;;;;;5.32;3.05;;;21.70;99.90;;;;;;5044298;28;20182;-78
2022/10/29 10:41:08;;;;;;;7.10;2.75;;;21.70;99.90;;;;;;5034312;28;20194;-79
2022/10/29 10:43:34;;;;;;;5.88;2.58;;;21.80;99.90;;;;;;5031291;28;20205;-78
2022/10/29 10:46:11;;;;;;;5.38;2.92;;;21.80;99.90;;;;;;5032572;28;20176;-79
2022/10/29 10:48:37;;;;;;;6.57;2.90;;;21.90;99.90;;;;;;5034655;28;20204;-77
2022/10/29 10:51:26;;;;;;;5.03;2.78;;;21.90;99.90;;;;;;5028997;28;20186;-80
2022/10/29 10:53:52;;;;;;;8.18;3.03;;;22.00;99.90;;;;;;5018772;28;20190;-80
2022/10/29 10:56:20;;;;;;;7.43;3.20;;;22.00;99.90;;;;;;5026519;28;20197;-79
2022/10/29 10:58:55;;;;;;;9.23;3.15;;;22.00;99.90;;;;;;5051549;28;20169;-80
2022/10/29 11:01:31;;;;;;;7.07;3.45;;;22.00;99.90;;;;;;5045008;28;20265;-80
2022/10/29 11:04:12;;;;;;;5.57;2.65;;;22.00;99.90;;;;;;5030949;28;20236;-79
2022/10/29 11:06:42;;;;;;;5.90;2.97;;;22.00;99.90;;;;;;5044512;28;20185;-77
2022/10/29 11:09:28;;;;;;;7.18;3.05;;;22.00;99.90;;;;;;5030784;28;20179;-78
2022/10/29 11:12:06;;;;;;;7.40;2.90;;;22.00;99.90;;;;;;5030753;28;20178;-76
2022/10/29 11:14:41;;;;;;;8.40;3.08;;;22.00;99.90;;;;;;5032169;28;20170;-78
2022/10/29 11:17:39;;;;;;;9.15;3.00;;;22.00;99.90;;;;;;5034633;28;20267;-79
2022/10/29 11:20:16;;;;;;;5.72;2.83;;;22.00;99.90;;;;;;5032579;28;20229;-80
2022/10/29 11:22:53;;;;;;;6.28;2.70;;;22.00;99.90;;;;;;5032931;28;20489;-78
2022/10/29 11:25:30;;;;;;;7.75;2.63;;;22.10;99.90;;;;;;5048456;28;20178;-77
2022/10/29 11:28:10;;;;;;;7.03;2.80;;;22.10;99.90;;;;;;5029664;28;20214;-77
2022/10/29 11:30:43;;;;;;;4.63;2.70;;;22.10;99.90;;;;;;5031483;28;20208;-76
2022/10/29 11:33:34;;;;;;;5.40;2.92;;;22.20;99.90;;;;;;5032053;28;20188;-77
2022/10/29 11:36:08;;;;;;;6.32;2.92;;;22.20;99.90;;;;;;5034593;28;20264;-79
2022/10/29 11:38:56;;;;;;;5.43;3.20;;;22.30;99.90;;;;;;5038153;28;20229;-74
2022/10/29 11:41:42;;;;;;;10.02;3.03;;;22.30;99.90;;;;;;5035038;28;20178;-78
2022/10/29 11:44:16;;;;;;;5.22;2.50;;;22.30;99.90;;;;;;5037449;28;20237;-79
2022/10/29 11:46:53;;;;;;;6.28;3.00;;;22.40;99.90;;;;;;5034485;28;20177;-79
2022/10/29 11:49:34;;;;;;;7.95;3.22;;;22.40;99.90;;;;;;5029326;28;20189;-78
2022/10/29 11:52:02;;;;;;;6.50;2.67;;;22.50;99.90;;;;;;5027381;28;20188;-77
2022/10/29 11:55:04;;;;;;;6.80;2.90;;;22.60;99.90;;;;;;5031407;28;20195;-77
2022/10/29 11:57:42;;;;;;;5.10;3.03;;;22.60;99.90;;;;;;5037983;28;20206;-75
2022/10/29 12:00:12;;;;;;;6.15;2.85;;;22.70;99.90;;;;;;5033762;28;20299;-78
2022/10/29 12:03:06;;;;;;;7.40;3.22;;;22.80;99.90;;;;;;5031921;28;20216;-79
2022/10/29 12:05:53;;;;;;;6.30;3.00;;;22.90;99.90;;;;;;5032722;28;20182;-79
2022/10/29 12:08:45;;;;;;;4.55;3.03;;;23.00;99.90;;;;;;5025936;28;20179;-79
2022/10/29 12:11:20;;;;;;;8.05;3.33;;;23.00;99.90;;;;;;5039219;28;20198;-78
2022/10/29 12:13:45;;;;;;;6.53;3.13;;;23.10;99.90;;;;;;5038403;28;20177;-79
2022/10/29 12:16:27;;;;;;;5.38;2.95;;;23.10;99.90;;;;;;5039026;28;20224;-78
2022/10/29 12:19:11;;;;;;;6.10;3.60;;;23.20;99.90;;;;;;5037205;28;20198;-78
2022/10/29 12:21:57;;;;;;;10.07;3.97;;;23.30;99.90;;;;;;5034724;28;20178;-79
2022/10/29 12:24:44;;;;;;;8.57;4.10;;;23.30;99.90;;;;;;5036418;28;20201;-75
2022/10/29 12:27:26;;;;;;;6.65;3.72;;;23.30;99.90;;;;;;5018963;28;20238;-79
2022/10/29 12:29:57;;;;;;;8.25;3.40;;;23.30;99.90;;;;;;5036093;28;20178;-78
2022/10/29 12:32:29;;;;;;;8.57;3.17;;;23.30;99.90;;;;;;5038871;28;20185;-79
2022/10/29 12:35:02;;;;;;;8.43;3.55;;;23.40;99.90;;;;;;5037255;28;20171;-77
2022/10/29 12:37:30;;;;;;;5.93;3.45;;;23.30;99.90;;;;;;5033182;28;20192;-79
2022/10/29 12:40:08;;;;;;;5.85;2.95;;;23.30;99.90;;;;;;5030691;28;20190;-79
2022/10/29 12:42:37;;;;;;;5.93;3.00;;;23.30;99.90;;;;;;5042428;28;20178;-78
2022/10/29 12:45:14;;;;;;;6.10;2.78;;;23.30;99.90;;;;;;5040513;28;20201;-75
2022/10/29 12:47:56;;;;;;;5.88;3.17;;;23.30;99.90;;;;;;5054409;28;20184;-76
2022/10/29 12:50:25;;;;;;;6.70;2.85;;;23.30;99.90;;;;;;5038967;28;20180;-71
2022/10/29 12:53:07;;;;;;;7.03;3.30;;;23.30;99.90;;;;;;5049781;28;20198;-77
2022/10/29 12:55:37;;;;;;;5.25;3.08;;;23.30;99.90;;;;;;5040361;28;20217;-77
2022/10/29 12:58:40;;;;;;;6.15;2.97;;;23.30;99.90;;;;;;5038773;28;20174;-77
2022/10/29 13:01:06;;;;;;;8.10;2.97;;;23.30;99.90;;;;;;5055746;28;20200;-78
2022/10/29 13:03:53;;;;;;;7.40;3.13;;;23.30;99.90;;;;;;5036981;28;20174;-77
2022/10/29 13:06:43;;;;;;;7.10;3.13;;;23.40;99.90;;;;;;5034903;28;20234;-77
2022/10/29 13:09:23;;;;;;;5.65;3.10;;;23.40;99.90;;;;;;5032343;28;20198;-77